sensor_id;sensor_type;location;lat;lon;timestamp;temperature;humidity
16198;DHT22;8206;51.440;6.914;2023-03-23T00:00:52;11.50;99.90
16198;DHT22;8206;51.440;6.914;2023-03-23T00:03:19;11.50;99.90
16198;DHT22;8206;51.440;6.914;2023-03-23T00:05:48;11.50;99.90
16198;DHT22;8206;51.440;6.914;2023-03-23T00:08:16;11.60;99.90
16198;DHT22;8206;51.440;6.914;2023-03-23T00:10:43;11.50;99.90
16198;DHT22;8206;51.440;6.914;2023-03-23T00:13:10;11.50;99.90
16198;DHT22;8206;51.440;6.914;2023-03-23T00:15:38;11.50;99.90
16198;DHT22;8206;51.440;6.914;2023-03-23T00:18:06;11.60;99.90
16198;DHT22;8206;51.440;6.914;2023-03-23T00:20:33;11.60;99.90
16198;DHT22;8206;51.440;6.914;2023-03-23T00:23:07;11.50;99.90
16198;DHT22;8206;51.440;6.914;2023-03-23T00:25:34;11.50;99.90
16198;DHT22;8206;51.440;6.914;2023-03-23T00:28:00;11.60;99.90
16198;DHT22;8206;51.440;6.914;2023-03-23T00:30:28;11.60;99.90
16198;DHT22;8206;51.440;6.914;2023-03-23T00:32:55;11.60;99.90
16198;DHT22;8206;51.440;6.914;2023-03-23T00:35:23;11.60;99.90
16198;DHT22;8206;51.440;6.914;2023-03-23T00:37:50;11.60;99.90
16198;DHT22;8206;51.440;6.914;2023-03-23T00:40:18;11.60;99.90
16198;DHT22;8206;51.440;6.914;2023-03-23T00:42:45;11.60;99.90
16198;DHT22;8206;51.440;6.914;2023-03-23T00:45:11;11.60;99.90
16198;DHT22;8206;51.440;6.914;2023-03-23T00:47:38;11.70;99.90
16198;DHT22;8206;51.440;6.914;2023-03-23T00:50:07;11.70;99.90
16198;DHT22;8206;51.440;6.914;2023-03-23T00:52:34;11.70;99.90
16198;DHT22;8206;51.440;6.914;2023-03-23T00:55:01;11.70;99.90
16198;DHT22;8206;51.440;6.914;2023-03-23T00:57:29;11.70;99.90
16198;DHT22;8206;51.440;6.914;2023-03-23T00:59:56;11.70;99.90
16198;DHT22;8206;51.440;6.914;2023-03-23T01:02:23;11.70;99.90
16198;DHT22;8206;51.440;6.914;2023-03-23T01:04:50;11.70;99.90
16198;DHT22;8206;51.440;6.914;2023-03-23T01:07:17;11.70;99.90
16198;DHT22;8206;51.440;6.914;2023-03-23T01:09:44;11.70;99.90
16198;DHT22;8206;51.440;6.914;2023-03-23T01:12:11;11.70;99.90
16198;DHT22;8206;51.440;6.914;2023-03-23T01:14:39;11.70;99.90
16198;DHT22;8206;51.440;6.914;2023-03-23T01:17:06;11.80;99.90
16198;DHT22;8206;51.440;6.914;2023-03-23T01:19:32;11.80;99.90
16198;DHT22;8206;51.440;6.914;2023-03-23T01:21:59;11.80;99.90
16198;DHT22;8206;51.440;6.914;2023-03-23T01:24:26;11.80;99.90
16198;DHT22;8206;51.440;6.914;2023-03-23T01:26:52;11.80;99.90
16198;DHT22;8206;51.440;6.914;2023-03-23T01:29:19;11.80;99.90
16198;DHT22;8206;51.440;6.914;2023-03-23T01:31:47;11.90;99.90
16198;DHT22;8206;51.440;6.914;2023-03-23T01:34:13;11.80;99.90
16198;DHT22;8206;51.440;6.914;2023-03-23T01:36:40;11.80;99.90
16198;DHT22;8206;51.440;6.914;2023-03-23T01:39:07;11.80;99.90
16198;DHT22;8206;51.440;6.914;2023-03-23T01:41:34;11.80;99.90
16198;DHT22;8206;51.440;6.914;2023-03-23T01:44:03;11.80;99.90
16198;DHT22;8206;51.440;6.914;2023-03-23T01:46:32;11.80;99.90
16198;DHT22;8206;51.440;6.914;2023-03-23T01:49:03;11.80;99.90
16198;DHT22;8206;51.440;6.914;2023-03-23T01:51:36;11.80;99.90
16198;DHT22;8206;51.440;6.914;2023-03-23T01:54:06;11.80;99.90
16198;DHT22;8206;51.440;6.914;2023-03-23T01:56:40;11.80;99.90
16198;DHT22;8206;51.440;6.914;2023-03-23T01:59:10;11.80;99.90
16198;DHT22;8206;51.440;6.914;2023-03-23T02:01:37;11.80;99.90
16198;DHT22;8206;51.440;6.914;2023-03-23T02:04:10;11.80;99.90
16198;DHT22;8206;51.440;6.914;2023-03-23T02:06:37;11.80;99.90
16198;DHT22;8206;51.440;6.914;2023-03-23T02:09:04;11.90;99.90
16198;DHT22;8206;51.440;6.914;2023-03-23T02:11:32;11.90;99.90
16198;DHT22;8206;51.440;6.914;2023-03-23T02:13:59;11.90;99.90
16198;DHT22;8206;51.440;6.914;2023-03-23T02:16:33;11.90;99.90
16198;DHT22;8206;51.440;6.914;2023-03-23T02:22:11;11.90;99.90
16198;DHT22;8206;51.440;6.914;2023-03-23T02:24:55;11.90;99.90
16198;DHT22;8206;51.440;6.914;2023-03-23T02:27:42;11.90;99.90
16198;DHT22;8206;51.440;6.914;2023-03-23T02:33:35;11.80;99.90
16198;DHT22;8206;51.440;6.914;2023-03-23T02:36:08;11.70;99.90
16198;DHT22;8206;51.440;6.914;2023-03-23T02:38:40;11.60;99.90
16198;DHT22;8206;51.440;6.914;2023-03-23T02:41:10;11.60;99.90
16198;DHT22;8206;51.440;6.914;2023-03-23T02:43:40;11.60;99.90
16198;DHT22;8206;51.440;6.914;2023-03-23T02:46:09;11.50;99.90
16198;DHT22;8206;51.440;6.914;2023-03-23T02:48:39;11.50;99.90
16198;DHT22;8206;51.440;6.914;2023-03-23T02:51:08;11.50;99.90
16198;DHT22;8206;51.440;6.914;2023-03-23T02:53:39;11.50;99.90
16198;DHT22;8206;51.440;6.914;2023-03-23T02:56:07;11.50;99.90
16198;DHT22;8206;51.440;6.914;2023-03-23T02:58:36;11.50;99.90
16198;DHT22;8206;51.440;6.914;2023-03-23T03:01:16;11.40;99.90
16198;DHT22;8206;51.440;6.914;2023-03-23T03:04:06;11.40;99.90
16198;DHT22;8206;51.440;6.914;2023-03-23T03:06:36;11.50;99.90
16198;DHT22;8206;51.440;6.914;2023-03-23T03:09:14;11.40;99.90
16198;DHT22;8206;51.440;6.914;2023-03-23T03:11:45;11.40;99.90
16198;DHT22;8206;51.440;6.914;2023-03-23T03:14:20;11.40;99.90
16198;DHT22;8206;51.440;6.914;2023-03-23T03:16:52;11.40;99.90
16198;DHT22;8206;51.440;6.914;2023-03-23T03:19:27;11.40;99.90
16198;DHT22;8206;51.440;6.914;2023-03-23T03:21:58;11.50;99.90
16198;DHT22;8206;51.440;6.914;2023-03-23T03:24:28;11.50;99.90
16198;DHT22;8206;51.440;6.914;2023-03-23T03:26:58;11.50;99.90
16198;DHT22;8206;51.440;6.914;2023-03-23T03:29:29;11.50;99.90
16198;DHT22;8206;51.440;6.914;2023-03-23T03:31:58;11.50;99.90
16198;DHT22;8206;51.440;6.914;2023-03-23T03:34:27;11.50;99.90
16198;DHT22;8206;51.440;6.914;2023-03-23T03:36:58;11.60;99.90
16198;DHT22;8206;51.440;6.914;2023-03-23T03:39:26;11.60;99.90
16198;DHT22;8206;51.440;6.914;2023-03-23T03:41:54;11.50;99.90
16198;DHT22;8206;51.440;6.914;2023-03-23T03:44:21;11.50;99.90
16198;DHT22;8206;51.440;6.914;2023-03-23T03:46:48;11.40;99.90
16198;DHT22;8206;51.440;6.914;2023-03-23T03:49:14;11.40;99.90
16198;DHT22;8206;51.440;6.914;2023-03-23T03:51:43;11.40;99.90
16198;DHT22;8206;51.440;6.914;2023-03-23T03:54:10;11.40;99.90
16198;DHT22;8206;51.440;6.914;2023-03-23T03:56:37;11.40;99.90
16198;DHT22;8206;51.440;6.914;2023-03-23T03:59:06;11.40;99.90
16198;DHT22;8206;51.440;6.914;2023-03-23T04:01:33;11.50;99.90
16198;DHT22;8206;51.440;6.914;2023-03-23T04:04:00;11.50;99.90
16198;DHT22;8206;51.440;6.914;2023-03-23T04:06:27;11.50;99.90
16198;DHT22;8206;51.440;6.914;2023-03-23T04:08:55;11.50;99.90
16198;DHT22;8206;51.440;6.914;2023-03-23T04:11:22;11.40;99.90
16198;DHT22;8206;51.440;6.914;2023-03-23T04:13:48;11.50;99.90
16198;DHT22;8206;51.440;6.914;2023-03-23T04:16:16;11.50;99.90
16198;DHT22;8206;51.440;6.914;2023-03-23T04:18:43;11.50;99.90
16198;DHT22;8206;51.440;6.914;2023-03-23T04:21:10;11.60;99.90
16198;DHT22;8206;51.440;6.914;2023-03-23T04:23:37;11.60;99.90
16198;DHT22;8206;51.440;6.914;2023-03-23T04:26:06;11.60;99.90
16198;DHT22;8206;51.440;6.914;2023-03-23T04:28:33;11.60;99.90
16198;DHT22;8206;51.440;6.914;2023-03-23T04:31:00;11.70;99.90
16198;DHT22;8206;51.440;6.914;2023-03-23T04:33:29;11.70;99.90
16198;DHT22;8206;51.440;6.914;2023-03-23T04:35:59;11.70;99.90
16198;DHT22;8206;51.440;6.914;2023-03-23T04:38:28;11.70;99.90
16198;DHT22;8206;51.440;6.914;2023-03-23T04:40:58;11.70;99.90
16198;DHT22;8206;51.440;6.914;2023-03-23T04:43:28;11.70;99.90
16198;DHT22;8206;51.440;6.914;2023-03-23T04:45:55;11.80;99.90
16198;DHT22;8206;51.440;6.914;2023-03-23T04:48:22;11.80;99.90
16198;DHT22;8206;51.440;6.914;2023-03-23T04:50:49;11.80;99.90
16198;DHT22;8206;51.440;6.914;2023-03-23T04:53:17;11.80;99.90
16198;DHT22;8206;51.440;6.914;2023-03-23T04:55:44;11.80;99.90
16198;DHT22;8206;51.440;6.914;2023-03-23T04:58:11;11.90;99.90
16198;DHT22;8206;51.440;6.914;2023-03-23T05:00:41;11.80;99.90
16198;DHT22;8206;51.440;6.914;2023-03-23T05:03:15;11.90;99.90
16198;DHT22;8206;51.440;6.914;2023-03-23T05:05:42;11.90;99.90
16198;DHT22;8206;51.440;6.914;2023-03-23T05:08:12;11.90;99.90
16198;DHT22;8206;51.440;6.914;2023-03-23T05:10:39;11.90;99.90
16198;DHT22;8206;51.440;6.914;2023-03-23T05:13:05;11.90;99.90
16198;DHT22;8206;51.440;6.914;2023-03-23T05:15:32;11.90;99.90
16198;DHT22;8206;51.440;6.914;2023-03-23T05:18:00;11.90;99.90
16198;DHT22;8206;51.440;6.914;2023-03-23T05:20:27;11.90;99.90
16198;DHT22;8206;51.440;6.914;2023-03-23T05:22:55;11.90;99.90
16198;DHT22;8206;51.440;6.914;2023-03-23T05:25:23;11.90;99.90
16198;DHT22;8206;51.440;6.914;2023-03-23T05:27:49;11.90;99.90
16198;DHT22;8206;51.440;6.914;2023-03-23T05:30:19;11.90;99.90
16198;DHT22;8206;51.440;6.914;2023-03-23T05:32:46;12.00;99.90
16198;DHT22;8206;51.440;6.914;2023-03-23T05:35:18;11.90;99.90
16198;DHT22;8206;51.440;6.914;2023-03-23T05:37:45;11.90;99.90
16198;DHT22;8206;51.440;6.914;2023-03-23T05:40:13;12.00;99.90
16198;DHT22;8206;51.440;6.914;2023-03-23T05:42:40;12.00;99.90
16198;DHT22;8206;51.440;6.914;2023-03-23T05:45:09;12.00;99.90
16198;DHT22;8206;51.440;6.914;2023-03-23T05:47:36;12.00;99.90
16198;DHT22;8206;51.440;6.914;2023-03-23T05:50:03;12.00;99.90
16198;DHT22;8206;51.440;6.914;2023-03-23T05:52:33;12.00;99.90
16198;DHT22;8206;51.440;6.914;2023-03-23T05:55:01;12.00;99.90
16198;DHT22;8206;51.440;6.914;2023-03-23T05:57:29;12.00;99.90
16198;DHT22;8206;51.440;6.914;2023-03-23T05:59:56;12.00;99.90
16198;DHT22;8206;51.440;6.914;2023-03-23T06:02:24;12.10;99.90
16198;DHT22;8206;51.440;6.914;2023-03-23T06:04:53;12.10;99.90
16198;DHT22;8206;51.440;6.914;2023-03-23T06:07:22;12.10;99.90
16198;DHT22;8206;51.440;6.914;2023-03-23T06:09:51;12.10;99.90
16198;DHT22;8206;51.440;6.914;2023-03-23T06:12:18;12.20;99.90
16198;DHT22;8206;51.440;6.914;2023-03-23T06:14:46;12.20;99.90
16198;DHT22;8206;51.440;6.914;2023-03-23T06:17:13;12.20;99.90
16198;DHT22;8206;51.440;6.914;2023-03-23T06:19:40;12.20;99.90
16198;DHT22;8206;51.440;6.914;2023-03-23T06:22:07;12.20;99.90
16198;DHT22;8206;51.440;6.914;2023-03-23T06:24:33;12.20;99.90
16198;DHT22;8206;51.440;6.914;2023-03-23T06:27:02;12.20;99.90
16198;DHT22;8206;51.440;6.914;2023-03-23T06:29:29;12.20;99.90
16198;DHT22;8206;51.440;6.914;2023-03-23T06:32:00;12.20;99.90
16198;DHT22;8206;51.440;6.914;2023-03-23T06:34:27;12.30;99.90
16198;DHT22;8206;51.440;6.914;2023-03-23T06:36:55;12.30;99.90
16198;DHT22;8206;51.440;6.914;2023-03-23T06:39:21;12.30;99.90
16198;DHT22;8206;51.440;6.914;2023-03-23T06:41:49;12.50;99.90
16198;DHT22;8206;51.440;6.914;2023-03-23T06:44:17;12.50;99.90
16198;DHT22;8206;51.440;6.914;2023-03-23T06:46:44;12.50;99.90
16198;DHT22;8206;51.440;6.914;2023-03-23T06:49:11;12.50;99.90
16198;DHT22;8206;51.440;6.914;2023-03-23T06:51:38;12.50;99.90
16198;DHT22;8206;51.440;6.914;2023-03-23T06:54:04;12.60;99.90
16198;DHT22;8206;51.440;6.914;2023-03-23T06:56:31;12.70;99.90
16198;DHT22;8206;51.440;6.914;2023-03-23T06:58:58;12.80;99.90
16198;DHT22;8206;51.440;6.914;2023-03-23T07:01:26;12.80;99.90
16198;DHT22;8206;51.440;6.914;2023-03-23T07:03:53;12.80;99.90
16198;DHT22;8206;51.440;6.914;2023-03-23T07:06:21;12.90;99.90
16198;DHT22;8206;51.440;6.914;2023-03-23T07:08:48;12.90;99.90
16198;DHT22;8206;51.440;6.914;2023-03-23T07:11:14;13.00;99.90
16198;DHT22;8206;51.440;6.914;2023-03-23T07:13:41;12.90;99.90
16198;DHT22;8206;51.440;6.914;2023-03-23T07:16:08;12.90;99.90
16198;DHT22;8206;51.440;6.914;2023-03-23T07:18:37;12.80;99.90
16198;DHT22;8206;51.440;6.914;2023-03-23T07:21:04;12.80;99.90
16198;DHT22;8206;51.440;6.914;2023-03-23T07:23:32;12.90;99.90
16198;DHT22;8206;51.440;6.914;2023-03-23T07:25:58;12.90;99.90
16198;DHT22;8206;51.440;6.914;2023-03-23T07:28:26;13.00;99.90
16198;DHT22;8206;51.440;6.914;2023-03-23T07:30:52;13.00;99.90
16198;DHT22;8206;51.440;6.914;2023-03-23T07:33:19;13.10;99.90
16198;DHT22;8206;51.440;6.914;2023-03-23T07:35:48;13.10;99.90
16198;DHT22;8206;51.440;6.914;2023-03-23T07:38:14;13.20;99.90
16198;DHT22;8206;51.440;6.914;2023-03-23T07:40:41;13.20;99.90
16198;DHT22;8206;51.440;6.914;2023-03-23T07:43:08;13.10;99.90
16198;DHT22;8206;51.440;6.914;2023-03-23T07:45:35;13.00;99.90
16198;DHT22;8206;51.440;6.914;2023-03-23T07:48:01;13.00;99.90
16198;DHT22;8206;51.440;6.914;2023-03-23T07:50:28;13.00;99.90
16198;DHT22;8206;51.440;6.914;2023-03-23T07:52:57;13.00;99.90
16198;DHT22;8206;51.440;6.914;2023-03-23T07:55:24;13.00;99.90
16198;DHT22;8206;51.440;6.914;2023-03-23T07:57:53;13.00;99.90
16198;DHT22;8206;51.440;6.914;2023-03-23T08:00:21;12.90;99.90
16198;DHT22;8206;51.440;6.914;2023-03-23T08:02:50;13.00;99.90
16198;DHT22;8206;51.440;6.914;2023-03-23T08:05:17;13.00;99.90
16198;DHT22;8206;51.440;6.914;2023-03-23T08:07:44;13.00;99.90
16198;DHT22;8206;51.440;6.914;2023-03-23T08:10:13;13.10;99.90
16198;DHT22;8206;51.440;6.914;2023-03-23T08:12:41;13.10;99.90
16198;DHT22;8206;51.440;6.914;2023-03-23T08:15:10;13.30;99.90
16198;DHT22;8206;51.440;6.914;2023-03-23T08:17:40;13.30;99.90
16198;DHT22;8206;51.440;6.914;2023-03-23T08:20:08;13.40;99.90
16198;DHT22;8206;51.440;6.914;2023-03-23T08:22:38;13.50;99.90
16198;DHT22;8206;51.440;6.914;2023-03-23T08:25:08;13.50;99.90
16198;DHT22;8206;51.440;6.914;2023-03-23T08:27:36;13.60;99.90
16198;DHT22;8206;51.440;6.914;2023-03-23T08:30:04;13.70;99.90
16198;DHT22;8206;51.440;6.914;2023-03-23T08:32:32;13.80;99.90
16198;DHT22;8206;51.440;6.914;2023-03-23T08:34:59;14.00;99.90
16198;DHT22;8206;51.440;6.914;2023-03-23T08:37:26;14.10;99.90
16198;DHT22;8206;51.440;6.914;2023-03-23T08:39:54;14.20;99.90
16198;DHT22;8206;51.440;6.914;2023-03-23T08:42:22;14.20;99.90
16198;DHT22;8206;51.440;6.914;2023-03-23T08:44:50;14.30;99.90
16198;DHT22;8206;51.440;6.914;2023-03-23T08:47:17;14.30;99.90
16198;DHT22;8206;51.440;6.914;2023-03-23T08:49:43;14.40;99.90
16198;DHT22;8206;51.440;6.914;2023-03-23T08:52:11;14.50;99.90
16198;DHT22;8206;51.440;6.914;2023-03-23T08:54:38;14.60;99.90
16198;DHT22;8206;51.440;6.914;2023-03-23T08:57:06;14.60;99.90
16198;DHT22;8206;51.440;6.914;2023-03-23T08:59:32;14.50;99.90
16198;DHT22;8206;51.440;6.914;2023-03-23T09:02:00;14.40;99.90
16198;DHT22;8206;51.440;6.914;2023-03-23T09:04:27;14.30;99.90
16198;DHT22;8206;51.440;6.914;2023-03-23T09:06:55;14.20;99.90
16198;DHT22;8206;51.440;6.914;2023-03-23T09:09:23;14.10;99.90
16198;DHT22;8206;51.440;6.914;2023-03-23T09:11:50;14.10;99.90
16198;DHT22;8206;51.440;6.914;2023-03-23T09:14:16;13.90;99.90
16198;DHT22;8206;51.440;6.914;2023-03-23T09:16:43;13.80;99.90
16198;DHT22;8206;51.440;6.914;2023-03-23T09:19:12;13.70;99.90
16198;DHT22;8206;51.440;6.914;2023-03-23T09:21:38;13.50;99.90
16198;DHT22;8206;51.440;6.914;2023-03-23T09:24:05;13.50;99.90
16198;DHT22;8206;51.440;6.914;2023-03-23T09:26:32;13.40;99.90
16198;DHT22;8206;51.440;6.914;2023-03-23T09:28:58;13.50;99.90
16198;DHT22;8206;51.440;6.914;2023-03-23T09:31:25;13.60;99.90
16198;DHT22;8206;51.440;6.914;2023-03-23T09:33:53;13.70;99.90
16198;DHT22;8206;51.440;6.914;2023-03-23T09:36:23;13.70;99.90
16198;DHT22;8206;51.440;6.914;2023-03-23T09:38:51;13.60;99.90
16198;DHT22;8206;51.440;6.914;2023-03-23T09:41:36;13.50;99.90
16198;DHT22;8206;51.440;6.914;2023-03-23T09:44:10;13.40;99.90
16198;DHT22;8206;51.440;6.914;2023-03-23T09:46:48;13.40;99.90
16198;DHT22;8206;51.440;6.914;2023-03-23T09:49:19;13.40;99.90
16198;DHT22;8206;51.440;6.914;2023-03-23T09:51:51;13.60;99.90
16198;DHT22;8206;51.440;6.914;2023-03-23T09:54:21;13.50;99.90
16198;DHT22;8206;51.440;6.914;2023-03-23T09:56:49;13.30;99.90
16198;DHT22;8206;51.440;6.914;2023-03-23T09:59:20;12.70;99.90
16198;DHT22;8206;51.440;6.914;2023-03-23T10:01:51;12.30;99.90
16198;DHT22;8206;51.440;6.914;2023-03-23T10:04:29;12.10;99.90
16198;DHT22;8206;51.440;6.914;2023-03-23T10:06:59;12.10;99.90
16198;DHT22;8206;51.440;6.914;2023-03-23T10:09:27;12.10;99.90
16198;DHT22;8206;51.440;6.914;2023-03-23T10:12:01;12.20;99.90
16198;DHT22;8206;51.440;6.914;2023-03-23T10:14:37;12.20;99.90
16198;DHT22;8206;51.440;6.914;2023-03-23T10:17:14;12.00;99.90
16198;DHT22;8206;51.440;6.914;2023-03-23T10:19:46;11.90;99.90
16198;DHT22;8206;51.440;6.914;2023-03-23T10:22:18;11.70;99.90
16198;DHT22;8206;51.440;6.914;2023-03-23T10:24:50;11.60;99.90
16198;DHT22;8206;51.440;6.914;2023-03-23T10:27:22;11.50;99.90
16198;DHT22;8206;51.440;6.914;2023-03-23T10:29:53;11.40;99.90
16198;DHT22;8206;51.440;6.914;2023-03-23T10:32:35;11.40;99.90
16198;DHT22;8206;51.440;6.914;2023-03-23T10:35:06;11.50;99.90
16198;DHT22;8206;51.440;6.914;2023-03-23T10:37:38;11.50;99.90
16198;DHT22;8206;51.440;6.914;2023-03-23T10:40:12;11.60;99.90
16198;DHT22;8206;51.440;6.914;2023-03-23T10:42:41;11.50;99.90
16198;DHT22;8206;51.440;6.914;2023-03-23T10:45:15;11.40;99.90
16198;DHT22;8206;51.440;6.914;2023-03-23T10:47:46;11.50;99.90
16198;DHT22;8206;51.440;6.914;2023-03-23T10:50:17;11.70;99.90
16198;DHT22;8206;51.440;6.914;2023-03-23T10:52:45;12.00;99.90
16198;DHT22;8206;51.440;6.914;2023-03-23T10:55:15;12.20;99.90
16198;DHT22;8206;51.440;6.914;2023-03-23T10:57:43;12.10;99.90
16198;DHT22;8206;51.440;6.914;2023-03-23T11:00:18;11.80;99.90
16198;DHT22;8206;51.440;6.914;2023-03-23T11:02:46;11.60;99.90
16198;DHT22;8206;51.440;6.914;2023-03-23T11:05:18;11.60;99.90
16198;DHT22;8206;51.440;6.914;2023-03-23T11:07:53;11.70;99.90
16198;DHT22;8206;51.440;6.914;2023-03-23T11:10:25;11.70;99.90
16198;DHT22;8206;51.440;6.914;2023-03-23T11:12:52;11.60;99.90
16198;DHT22;8206;51.440;6.914;2023-03-23T11:15:28;11.50;99.90
16198;DHT22;8206;51.440;6.914;2023-03-23T11:18:01;11.50;99.90
16198;DHT22;8206;51.440;6.914;2023-03-23T11:20:32;11.60;99.90
16198;DHT22;8206;51.440;6.914;2023-03-23T11:23:13;11.70;99.90
16198;DHT22;8206;51.440;6.914;2023-03-23T11:25:58;11.80;99.90
16198;DHT22;8206;51.440;6.914;2023-03-23T11:28:31;12.10;99.90
16198;DHT22;8206;51.440;6.914;2023-03-23T11:30:59;12.20;99.90
16198;DHT22;8206;51.440;6.914;2023-03-23T11:33:29;12.20;99.90
16198;DHT22;8206;51.440;6.914;2023-03-23T11:35:56;12.20;99.90
16198;DHT22;8206;51.440;6.914;2023-03-23T11:38:25;12.20;99.90
16198;DHT22;8206;51.440;6.914;2023-03-23T11:40:53;12.20;99.90
16198;DHT22;8206;51.440;6.914;2023-03-23T11:43:22;12.30;99.90
16198;DHT22;8206;51.440;6.914;2023-03-23T11:45:58;12.20;99.90
16198;DHT22;8206;51.440;6.914;2023-03-23T11:48:33;12.20;99.90
16198;DHT22;8206;51.440;6.914;2023-03-23T11:51:04;12.50;99.90
16198;DHT22;8206;51.440;6.914;2023-03-23T11:53:42;12.90;99.90
16198;DHT22;8206;51.440;6.914;2023-03-23T11:56:19;13.00;99.90
16198;DHT22;8206;51.440;6.914;2023-03-23T11:58:49;13.00;99.90
16198;DHT22;8206;51.440;6.914;2023-03-23T12:01:24;12.90;99.90
16198;DHT22;8206;51.440;6.914;2023-03-23T12:04:09;12.70;99.90
16198;DHT22;8206;51.440;6.914;2023-03-23T12:06:45;12.70;99.90
16198;DHT22;8206;51.440;6.914;2023-03-23T12:09:24;12.50;99.90
16198;DHT22;8206;51.440;6.914;2023-03-23T12:12:05;12.30;99.90
16198;DHT22;8206;51.440;6.914;2023-03-23T12:14:41;12.20;99.90
16198;DHT22;8206;51.440;6.914;2023-03-23T12:17:18;12.20;99.90
16198;DHT22;8206;51.440;6.914;2023-03-23T12:19:53;12.30;99.90
16198;DHT22;8206;51.440;6.914;2023-03-23T12:22:32;12.30;99.90
16198;DHT22;8206;51.440;6.914;2023-03-23T12:25:16;12.50;99.90
16198;DHT22;8206;51.440;6.914;2023-03-23T12:27:49;12.50;99.90
16198;DHT22;8206;51.440;6.914;2023-03-23T12:30:28;12.40;99.90
16198;DHT22;8206;51.440;6.914;2023-03-23T12:33:14;12.50;99.90
16198;DHT22;8206;51.440;6.914;2023-03-23T12:35:59;12.80;99.90
16198;DHT22;8206;51.440;6.914;2023-03-23T12:38:48;13.00;99.90
16198;DHT22;8206;51.440;6.914;2023-03-23T12:41:18;13.20;99.90
16198;DHT22;8206;51.440;6.914;2023-03-23T12:43:52;13.50;99.90
16198;DHT22;8206;51.440;6.914;2023-03-23T12:46:52;13.80;99.90
16198;DHT22;8206;51.440;6.914;2023-03-23T12:49:23;14.00;99.90
16198;DHT22;8206;51.440;6.914;2023-03-23T12:52:00;14.00;99.90
16198;DHT22;8206;51.440;6.914;2023-03-23T12:54:32;14.10;99.90
16198;DHT22;8206;51.440;6.914;2023-03-23T12:57:05;14.10;99.90
16198;DHT22;8206;51.440;6.914;2023-03-23T12:59:39;13.90;99.90
16198;DHT22;8206;51.440;6.914;2023-03-23T13:02:14;13.80;99.90
16198;DHT22;8206;51.440;6.914;2023-03-23T13:04:44;14.10;99.90
16198;DHT22;8206;51.440;6.914;2023-03-23T13:07:16;14.30;99.90
16198;DHT22;8206;51.440;6.914;2023-03-23T13:09:50;14.60;99.90
16198;DHT22;8206;51.440;6.914;2023-03-23T13:12:20;14.40;99.90
16198;DHT22;8206;51.440;6.914;2023-03-23T13:14:55;14.10;99.90
16198;DHT22;8206;51.440;6.914;2023-03-23T13:17:33;14.10;99.90
16198;DHT22;8206;51.440;6.914;2023-03-23T13:20:17;14.10;99.90
16198;DHT22;8206;51.440;6.914;2023-03-23T13:22:52;14.30;99.90
16198;DHT22;8206;51.440;6.914;2023-03-23T13:25:32;14.20;99.90
16198;DHT22;8206;51.440;6.914;2023-03-23T13:28:05;14.00;99.90
16198;DHT22;8206;51.440;6.914;2023-03-23T13:30:31;13.80;99.90
16198;DHT22;8206;51.440;6.914;2023-03-23T13:33:02;13.70;99.90
16198;DHT22;8206;51.440;6.914;2023-03-23T13:35:34;13.70;99.90
16198;DHT22;8206;51.440;6.914;2023-03-23T13:38:02;13.60;99.90
16198;DHT22;8206;51.440;6.914;2023-03-23T13:40:42;13.50;99.90
16198;DHT22;8206;51.440;6.914;2023-03-23T13:43:11;13.70;99.90
16198;DHT22;8206;51.440;6.914;2023-03-23T13:45:44;13.90;99.90
16198;DHT22;8206;51.440;6.914;2023-03-23T13:48:20;13.90;99.90
16198;DHT22;8206;51.440;6.914;2023-03-23T13:50:53;14.00;99.90
16198;DHT22;8206;51.440;6.914;2023-03-23T13:53:25;14.20;99.90
16198;DHT22;8206;51.440;6.914;2023-03-23T13:56:06;14.50;99.90
16198;DHT22;8206;51.440;6.914;2023-03-23T13:58:44;14.70;99.90
16198;DHT22;8206;51.440;6.914;2023-03-23T14:01:15;14.80;99.90
16198;DHT22;8206;51.440;6.914;2023-03-23T14:03:45;14.90;99.90
16198;DHT22;8206;51.440;6.914;2023-03-23T14:06:18;15.10;99.90
16198;DHT22;8206;51.440;6.914;2023-03-23T14:08:48;15.00;99.90
16198;DHT22;8206;51.440;6.914;2023-03-23T14:11:19;15.00;99.90
16198;DHT22;8206;51.440;6.914;2023-03-23T14:13:57;15.10;99.90
16198;DHT22;8206;51.440;6.914;2023-03-23T14:16:28;15.00;99.90
16198;DHT22;8206;51.440;6.914;2023-03-23T14:18:58;15.00;99.90
16198;DHT22;8206;51.440;6.914;2023-03-23T14:21:32;15.20;99.90
16198;DHT22;8206;51.440;6.914;2023-03-23T14:24:05;15.10;99.90
16198;DHT22;8206;51.440;6.914;2023-03-23T14:26:34;15.20;99.90
16198;DHT22;8206;51.440;6.914;2023-03-23T14:29:04;14.90;99.90
16198;DHT22;8206;51.440;6.914;2023-03-23T14:31:32;14.80;99.90
16198;DHT22;8206;51.440;6.914;2023-03-23T14:34:02;14.70;99.90
16198;DHT22;8206;51.440;6.914;2023-03-23T14:36:30;14.60;99.90
16198;DHT22;8206;51.440;6.914;2023-03-23T14:39:04;14.50;99.90
16198;DHT22;8206;51.440;6.914;2023-03-23T14:41:34;14.40;99.90
16198;DHT22;8206;51.440;6.914;2023-03-23T14:44:05;14.10;99.90
16198;DHT22;8206;51.440;6.914;2023-03-23T14:46:33;13.90;99.90
16198;DHT22;8206;51.440;6.914;2023-03-23T14:49:00;13.70;99.90
16198;DHT22;8206;51.440;6.914;2023-03-23T14:51:28;13.70;99.90
16198;DHT22;8206;51.440;6.914;2023-03-23T14:53:55;13.80;99.90
16198;DHT22;8206;51.440;6.914;2023-03-23T14:56:23;14.00;99.90
16198;DHT22;8206;51.440;6.914;2023-03-23T14:58:53;14.30;99.90
16198;DHT22;8206;51.440;6.914;2023-03-23T15:01:24;14.60;99.90
16198;DHT22;8206;51.440;6.914;2023-03-23T15:03:55;14.70;99.90
16198;DHT22;8206;51.440;6.914;2023-03-23T15:06:25;14.70;99.90
16198;DHT22;8206;51.440;6.914;2023-03-23T15:08:56;14.50;99.90
16198;DHT22;8206;51.440;6.914;2023-03-23T15:11:27;14.50;99.90
16198;DHT22;8206;51.440;6.914;2023-03-23T15:13:56;14.40;99.90
16198;DHT22;8206;51.440;6.914;2023-03-23T15:16:27;14.40;99.90
16198;DHT22;8206;51.440;6.914;2023-03-23T15:18:56;14.40;99.90
16198;DHT22;8206;51.440;6.914;2023-03-23T15:21:27;14.30;99.90
16198;DHT22;8206;51.440;6.914;2023-03-23T15:23:54;14.40;99.90
16198;DHT22;8206;51.440;6.914;2023-03-23T15:26:27;14.40;99.90
16198;DHT22;8206;51.440;6.914;2023-03-23T15:29:03;14.30;99.90
16198;DHT22;8206;51.440;6.914;2023-03-23T15:31:31;14.20;99.90
16198;DHT22;8206;51.440;6.914;2023-03-23T15:34:02;14.20;99.90
16198;DHT22;8206;51.440;6.914;2023-03-23T15:36:32;14.10;99.90
16198;DHT22;8206;51.440;6.914;2023-03-23T15:39:00;14.10;99.90
16198;DHT22;8206;51.440;6.914;2023-03-23T15:41:31;14.10;99.90
16198;DHT22;8206;51.440;6.914;2023-03-23T15:44:10;14.10;99.90
16198;DHT22;8206;51.440;6.914;2023-03-23T15:46:49;14.10;99.90
16198;DHT22;8206;51.440;6.914;2023-03-23T15:49:16;14.00;99.90
16198;DHT22;8206;51.440;6.914;2023-03-23T15:51:43;14.00;99.90
16198;DHT22;8206;51.440;6.914;2023-03-23T15:54:13;14.10;99.90
16198;DHT22;8206;51.440;6.914;2023-03-23T15:56:41;14.10;99.90
16198;DHT22;8206;51.440;6.914;2023-03-23T15:59:08;14.10;99.90
16198;DHT22;8206;51.440;6.914;2023-03-23T16:01:37;14.10;99.90
16198;DHT22;8206;51.440;6.914;2023-03-23T16:04:08;14.10;99.90
16198;DHT22;8206;51.440;6.914;2023-03-23T16:06:37;14.10;99.90
16198;DHT22;8206;51.440;6.914;2023-03-23T16:09:04;14.10;99.90